sensor_id;sensor_type;location;lat;lon;timestamp;P1;durP1;ratioP1;P2;durP2;ratioP2
49852;SDS011;35751;48.072;11.688;2023-01-19T00:00:12;16.75;;;9.88;;
49852;SDS011;35751;48.072;11.688;2023-01-19T00:02:39;15.65;;;9.15;;
49852;SDS011;35751;48.072;11.688;2023-01-19T00:05:07;18.75;;;8.68;;
49852;SDS011;35751;48.072;11.688;2023-01-19T00:07:34;13.57;;;8.43;;
49852;SDS011;35751;48.072;11.688;2023-01-19T00:10:00;14.23;;;8.20;;
49852;SDS011;35751;48.072;11.688;2023-01-19T00:12:26;16.30;;;8.20;;
49852;SDS011;35751;48.072;11.688;2023-01-19T00:14:55;15.45;;;9.43;;
49852;SDS011;35751;48.072;11.688;2023-01-19T00:17:20;15.60;;;8.70;;
49852;SDS011;35751;48.072;11.688;2023-01-19T00:19:46;16.58;;;8.70;;
49852;SDS011;35751;48.072;11.688;2023-01-19T00:22:15;17.33;;;9.57;;
49852;SDS011;35751;48.072;11.688;2023-01-19T00:24:41;21.27;;;11.23;;
49852;SDS011;35751;48.072;11.688;2023-01-19T00:27:08;16.45;;;10.60;;
49852;SDS011;35751;48.072;11.688;2023-01-19T00:29:34;23.95;;;9.82;;
49852;SDS011;35751;48.072;11.688;2023-01-19T00:32:00;21.60;;;10.48;;
49852;SDS011;35751;48.072;11.688;2023-01-19T00:34:26;15.95;;;9.68;;
49852;SDS011;35751;48.072;11.688;2023-01-19T00:37:05;17.52;;;9.57;;
49852;SDS011;35751;48.072;11.688;2023-01-19T00:39:31;18.20;;;9.77;;
49852;SDS011;35751;48.072;11.688;2023-01-19T00:41:56;15.80;;;9.15;;
49852;SDS011;35751;48.072;11.688;2023-01-19T00:44:41;22.63;;;12.85;;
49852;SDS011;35751;48.072;11.688;2023-01-19T00:47:07;16.58;;;10.68;;
49852;SDS011;35751;48.072;11.688;2023-01-19T00:49:33;19.08;;;11.25;;
49852;SDS011;35751;48.072;11.688;2023-01-19T00:52:02;18.65;;;10.27;;
49852;SDS011;35751;48.072;11.688;2023-01-19T00:54:31;17.85;;;11.43;;
49852;SDS011;35751;48.072;11.688;2023-01-19T00:56:57;20.75;;;12.23;;
49852;SDS011;35751;48.072;11.688;2023-01-19T00:59:23;24.55;;;11.43;;
49852;SDS011;35751;48.072;11.688;2023-01-19T01:01:49;18.80;;;11.07;;
49852;SDS011;35751;48.072;11.688;2023-01-19T01:04:15;21.63;;;11.00;;
49852;SDS011;35751;48.072;11.688;2023-01-19T01:06:41;20.70;;;9.52;;
49852;SDS011;35751;48.072;11.688;2023-01-19T01:09:07;16.23;;;9.77;;
49852;SDS011;35751;48.072;11.688;2023-01-19T01:11:37;14.75;;;9.80;;
49852;SDS011;35751;48.072;11.688;2023-01-19T01:14:06;16.85;;;9.60;;
49852;SDS011;35751;48.072;11.688;2023-01-19T01:16:33;15.93;;;10.52;;
49852;SDS011;35751;48.072;11.688;2023-01-19T01:18:59;16.85;;;10.07;;
49852;SDS011;35751;48.072;11.688;2023-01-19T01:21:25;17.63;;;11.35;;
49852;SDS011;35751;48.072;11.688;2023-01-19T01:23:52;19.38;;;10.02;;
49852;SDS011;35751;48.072;11.688;2023-01-19T01:26:18;18.90;;;11.15;;
49852;SDS011;35751;48.072;11.688;2023-01-19T01:28:43;19.92;;;11.32;;
49852;SDS011;35751;48.072;11.688;2023-01-19T01:31:09;15.38;;;10.38;;
49852;SDS011;35751;48.072;11.688;2023-01-19T01:33:34;16.50;;;10.18;;
49852;SDS011;35751;48.072;11.688;2023-01-19T01:36:00;17.33;;;10.32;;
49852;SDS011;35751;48.072;11.688;2023-01-19T01:38:26;15.57;;;9.85;;
49852;SDS011;35751;48.072;11.688;2023-01-19T01:40:51;16.80;;;11.43;;
49852;SDS011;35751;48.072;11.688;2023-01-19T01:43:17;13.88;;;8.93;;
49852;SDS011;35751;48.072;11.688;2023-01-19T01:45:44;17.08;;;10.35;;
49852;SDS011;35751;48.072;11.688;2023-01-19T01:48:12;14.05;;;8.43;;
49852;SDS011;35751;48.072;11.688;2023-01-19T01:50:40;16.48;;;9.18;;
49852;SDS011;35751;48.072;11.688;2023-01-19T01:53:31;14.23;;;9.25;;
49852;SDS011;35751;48.072;11.688;2023-01-19T01:55:58;20.73;;;11.30;;
49852;SDS011;35751;48.072;11.688;2023-01-19T01:58:25;20.88;;;11.48;;
49852;SDS011;35751;48.072;11.688;2023-01-19T02:00:51;17.15;;;9.10;;
49852;SDS011;35751;48.072;11.688;2023-01-19T02:03:36;14.30;;;8.23;;
49852;SDS011;35751;48.072;11.688;2023-01-19T02:06:02;16.13;;;10.13;;
49852;SDS011;35751;48.072;11.688;2023-01-19T02:08:32;16.17;;;8.98;;
49852;SDS011;35751;48.072;11.688;2023-01-19T02:11:38;15.45;;;8.50;;
49852;SDS011;35751;48.072;11.688;2023-01-19T02:14:23;20.70;;;10.90;;
49852;SDS011;35751;48.072;11.688;2023-01-19T02:16:48;18.55;;;9.48;;
49852;SDS011;35751;48.072;11.688;2023-01-19T02:19:15;19.48;;;10.52;;
49852;SDS011;35751;48.072;11.688;2023-01-19T02:24:29;20.63;;;9.90;;
49852;SDS011;35751;48.072;11.688;2023-01-19T02:26:55;18.20;;;10.40;;
49852;SDS011;35751;48.072;11.688;2023-01-19T02:29:23;16.85;;;9.07;;
49852;SDS011;35751;48.072;11.688;2023-01-19T02:31:49;16.65;;;10.25;;
49852;SDS011;35751;48.072;11.688;2023-01-19T02:34:17;15.05;;;8.57;;
49852;SDS011;35751;48.072;11.688;2023-01-19T02:36:51;17.58;;;9.10;;
49852;SDS011;35751;48.072;11.688;2023-01-19T02:39:20;18.27;;;8.75;;
49852;SDS011;35751;48.072;11.688;2023-01-19T02:41:53;12.88;;;8.65;;
49852;SDS011;35751;48.072;11.688;2023-01-19T02:44:20;13.57;;;8.88;;
49852;SDS011;35751;48.072;11.688;2023-01-19T02:46:47;18.30;;;8.82;;
49852;SDS011;35751;48.072;11.688;2023-01-19T02:49:13;15.63;;;8.98;;
49852;SDS011;35751;48.072;11.688;2023-01-19T02:51:38;14.88;;;8.85;;
49852;SDS011;35751;48.072;11.688;2023-01-19T02:54:32;23.25;;;10.15;;
49852;SDS011;35751;48.072;11.688;2023-01-19T02:57:19;18.55;;;8.60;;
49852;SDS011;35751;48.072;11.688;2023-01-19T03:00:10;12.00;;;8.10;;
49852;SDS011;35751;48.072;11.688;2023-01-19T03:02:57;9.88;;;5.88;;
49852;SDS011;35751;48.072;11.688;2023-01-19T03:11:17;10.93;;;5.40;;
49852;SDS011;35751;48.072;11.688;2023-01-19T03:13:47;10.18;;;6.00;;
49852;SDS011;35751;48.072;11.688;2023-01-19T03:16:29;9.30;;;5.25;;
49852;SDS011;35751;48.072;11.688;2023-01-19T03:19:26;14.27;;;5.55;;
49852;SDS011;35751;48.072;11.688;2023-01-19T03:21:57;8.93;;;4.65;;
49852;SDS011;35751;48.072;11.688;2023-01-19T03:24:24;14.23;;;6.30;;
49852;SDS011;35751;48.072;11.688;2023-01-19T03:26:58;7.33;;;5.53;;
49852;SDS011;35751;48.072;11.688;2023-01-19T03:29:27;9.75;;;6.68;;
49852;SDS011;35751;48.072;11.688;2023-01-19T03:31:56;8.68;;;5.57;;
49852;SDS011;35751;48.072;11.688;2023-01-19T03:34:25;9.25;;;5.00;;
49852;SDS011;35751;48.072;11.688;2023-01-19T03:36:52;8.43;;;5.40;;
49852;SDS011;35751;48.072;11.688;2023-01-19T03:39:23;8.32;;;4.88;;
49852;SDS011;35751;48.072;11.688;2023-01-19T03:41:53;7.93;;;5.07;;
49852;SDS011;35751;48.072;11.688;2023-01-19T03:44:24;9.32;;;5.78;;
49852;SDS011;35751;48.072;11.688;2023-01-19T03:46:51;11.30;;;5.73;;
49852;SDS011;35751;48.072;11.688;2023-01-19T03:49:16;11.33;;;6.03;;
49852;SDS011;35751;48.072;11.688;2023-01-19T03:51:43;9.38;;;6.15;;
49852;SDS011;35751;48.072;11.688;2023-01-19T03:54:08;9.40;;;6.32;;
49852;SDS011;35751;48.072;11.688;2023-01-19T03:56:35;12.35;;;6.45;;
49852;SDS011;35751;48.072;11.688;2023-01-19T03:59:01;13.60;;;6.85;;
49852;SDS011;35751;48.072;11.688;2023-01-19T04:01:26;11.27;;;6.80;;
49852;SDS011;35751;48.072;11.688;2023-01-19T04:03:52;12.60;;;7.23;;
49852;SDS011;35751;48.072;11.688;2023-01-19T04:06:18;15.93;;;7.35;;
49852;SDS011;35751;48.072;11.688;2023-01-19T04:08:46;13.25;;;7.38;;
49852;SDS011;35751;48.072;11.688;2023-01-19T04:11:12;13.05;;;7.90;;
49852;SDS011;35751;48.072;11.688;2023-01-19T04:13:38;11.73;;;7.80;;
49852;SDS011;35751;48.072;11.688;2023-01-19T04:16:04;12.53;;;6.77;;
49852;SDS011;35751;48.072;11.688;2023-01-19T04:18:31;12.63;;;7.67;;
49852;SDS011;35751;48.072;11.688;2023-01-19T04:21:04;12.13;;;8.50;;
49852;SDS011;35751;48.072;11.688;2023-01-19T04:23:31;16.33;;;8.23;;
49852;SDS011;35751;48.072;11.688;2023-01-19T04:26:01;14.40;;;8.00;;
49852;SDS011;35751;48.072;11.688;2023-01-19T04:28:29;13.00;;;8.20;;
49852;SDS011;35751;48.072;11.688;2023-01-19T04:30:55;14.95;;;9.73;;
49852;SDS011;35751;48.072;11.688;2023-01-19T04:33:20;13.35;;;7.97;;
49852;SDS011;35751;48.072;11.688;2023-01-19T04:35:46;15.18;;;9.00;;
49852;SDS011;35751;48.072;11.688;2023-01-19T04:38:12;14.13;;;8.60;;
49852;SDS011;35751;48.072;11.688;2023-01-19T04:40:38;13.63;;;8.80;;
49852;SDS011;35751;48.072;11.688;2023-01-19T04:43:04;14.33;;;9.13;;
49852;SDS011;35751;48.072;11.688;2023-01-19T04:45:30;17.48;;;10.13;;
49852;SDS011;35751;48.072;11.688;2023-01-19T04:47:55;20.13;;;10.73;;
49852;SDS011;35751;48.072;11.688;2023-01-19T04:50:21;17.05;;;8.85;;
49852;SDS011;35751;48.072;11.688;2023-01-19T04:52:46;14.38;;;8.93;;
49852;SDS011;35751;48.072;11.688;2023-01-19T04:55:13;15.05;;;8.43;;
49852;SDS011;35751;48.072;11.688;2023-01-19T04:57:39;14.20;;;8.68;;
49852;SDS011;35751;48.072;11.688;2023-01-19T05:00:05;14.60;;;8.75;;
49852;SDS011;35751;48.072;11.688;2023-01-19T05:02:31;17.50;;;8.98;;
49852;SDS011;35751;48.072;11.688;2023-01-19T05:04:58;18.05;;;10.40;;
49852;SDS011;35751;48.072;11.688;2023-01-19T05:07:23;16.35;;;9.18;;
49852;SDS011;35751;48.072;11.688;2023-01-19T05:09:49;14.65;;;9.57;;
49852;SDS011;35751;48.072;11.688;2023-01-19T05:12:14;12.88;;;8.52;;
49852;SDS011;35751;48.072;11.688;2023-01-19T05:14:40;16.60;;;9.27;;
49852;SDS011;35751;48.072;11.688;2023-01-19T05:17:06;13.05;;;8.65;;
49852;SDS011;35751;48.072;11.688;2023-01-19T05:19:31;15.15;;;8.98;;
49852;SDS011;35751;48.072;11.688;2023-01-19T05:21:57;15.60;;;9.57;;
49852;SDS011;35751;48.072;11.688;2023-01-19T05:24:22;13.43;;;8.80;;
49852;SDS011;35751;48.072;11.688;2023-01-19T05:26:48;16.15;;;9.70;;
49852;SDS011;35751;48.072;11.688;2023-01-19T05:29:13;15.68;;;9.75;;
49852;SDS011;35751;48.072;11.688;2023-01-19T05:31:39;16.48;;;8.48;;
49852;SDS011;35751;48.072;11.688;2023-01-19T05:34:05;14.98;;;10.38;;
49852;SDS011;35751;48.072;11.688;2023-01-19T05:36:30;14.25;;;8.80;;
49852;SDS011;35751;48.072;11.688;2023-01-19T05:38:56;18.40;;;10.13;;
49852;SDS011;35751;48.072;11.688;2023-01-19T05:41:21;17.92;;;9.45;;
49852;SDS011;35751;48.072;11.688;2023-01-19T05:43:47;17.90;;;9.50;;
49852;SDS011;35751;48.072;11.688;2023-01-19T05:46:13;17.23;;;10.75;;
49852;SDS011;35751;48.072;11.688;2023-01-19T05:48:38;15.40;;;10.23;;
49852;SDS011;35751;48.072;11.688;2023-01-19T05:51:04;17.75;;;9.65;;
49852;SDS011;35751;48.072;11.688;2023-01-19T05:53:30;15.27;;;9.52;;
49852;SDS011;35751;48.072;11.688;2023-01-19T05:56:02;16.55;;;10.35;;
49852;SDS011;35751;48.072;11.688;2023-01-19T05:58:29;14.27;;;9.80;;
49852;SDS011;35751;48.072;11.688;2023-01-19T06:00:55;15.18;;;9.10;;
49852;SDS011;35751;48.072;11.688;2023-01-19T06:03:21;17.23;;;11.68;;
49852;SDS011;35751;48.072;11.688;2023-01-19T06:05:47;18.08;;;9.75;;
49852;SDS011;35751;48.072;11.688;2023-01-19T06:08:12;15.40;;;10.00;;
49852;SDS011;35751;48.072;11.688;2023-01-19T06:10:38;17.30;;;11.05;;
49852;SDS011;35751;48.072;11.688;2023-01-19T06:13:04;18.70;;;10.80;;
49852;SDS011;35751;48.072;11.688;2023-01-19T06:15:30;18.00;;;10.13;;
49852;SDS011;35751;48.072;11.688;2023-01-19T06:17:56;20.08;;;10.05;;
49852;SDS011;35751;48.072;11.688;2023-01-19T06:20:21;19.40;;;11.20;;
49852;SDS011;35751;48.072;11.688;2023-01-19T06:22:47;18.65;;;11.63;;
49852;SDS011;35751;48.072;11.688;2023-01-19T06:25:13;18.05;;;9.93;;
49852;SDS011;35751;48.072;11.688;2023-01-19T06:27:42;21.85;;;10.70;;
49852;SDS011;35751;48.072;11.688;2023-01-19T06:30:09;21.02;;;11.02;;
49852;SDS011;35751;48.072;11.688;2023-01-19T06:32:35;17.05;;;9.77;;
49852;SDS011;35751;48.072;11.688;2023-01-19T06:35:01;21.45;;;10.52;;
49852;SDS011;35751;48.072;11.688;2023-01-19T06:37:27;21.00;;;11.98;;
49852;SDS011;35751;48.072;11.688;2023-01-19T06:39:54;18.63;;;10.65;;
49852;SDS011;35751;48.072;11.688;2023-01-19T06:42:19;18.00;;;11.77;;
49852;SDS011;35751;48.072;11.688;2023-01-19T06:44:45;18.05;;;10.75;;
49852;SDS011;35751;48.072;11.688;2023-01-19T06:47:12;17.38;;;11.52;;
49852;SDS011;35751;48.072;11.688;2023-01-19T06:49:39;25.48;;;11.98;;
49852;SDS011;35751;48.072;11.688;2023-01-19T06:52:07;26.48;;;12.43;;
49852;SDS011;35751;48.072;11.688;2023-01-19T06:54:35;23.73;;;12.45;;
49852;SDS011;35751;48.072;11.688;2023-01-19T06:57:01;23.27;;;12.38;;
49852;SDS011;35751;48.072;11.688;2023-01-19T06:59:26;22.85;;;11.43;;
49852;SDS011;35751;48.072;11.688;2023-01-19T07:01:55;22.10;;;13.25;;
49852;SDS011;35751;48.072;11.688;2023-01-19T07:04:21;26.23;;;13.30;;
49852;SDS011;35751;48.072;11.688;2023-01-19T07:06:47;23.83;;;13.13;;
49852;SDS011;35751;48.072;11.688;2023-01-19T07:09:13;20.60;;;12.75;;
49852;SDS011;35751;48.072;11.688;2023-01-19T07:11:38;21.15;;;12.20;;
49852;SDS011;35751;48.072;11.688;2023-01-19T07:14:04;19.50;;;11.20;;
49852;SDS011;35751;48.072;11.688;2023-01-19T07:16:29;21.05;;;11.65;;
49852;SDS011;35751;48.072;11.688;2023-01-19T07:18:56;18.65;;;10.60;;
49852;SDS011;35751;48.072;11.688;2023-01-19T07:21:22;24.02;;;10.73;;
49852;SDS011;35751;48.072;11.688;2023-01-19T07:23:48;20.42;;;11.05;;
49852;SDS011;35751;48.072;11.688;2023-01-19T07:26:14;17.15;;;12.02;;
49852;SDS011;35751;48.072;11.688;2023-01-19T07:28:42;18.57;;;9.63;;
49852;SDS011;35751;48.072;11.688;2023-01-19T07:31:08;18.52;;;9.25;;
49852;SDS011;35751;48.072;11.688;2023-01-19T07:33:34;16.17;;;9.98;;
49852;SDS011;35751;48.072;11.688;2023-01-19T07:36:00;20.08;;;10.27;;
49852;SDS011;35751;48.072;11.688;2023-01-19T07:38:26;20.85;;;9.73;;
49852;SDS011;35751;48.072;11.688;2023-01-19T07:40:58;18.90;;;9.50;;
49852;SDS011;35751;48.072;11.688;2023-01-19T07:43:24;19.27;;;10.25;;
49852;SDS011;35751;48.072;11.688;2023-01-19T07:45:50;24.60;;;11.32;;
49852;SDS011;35751;48.072;11.688;2023-01-19T07:48:16;21.73;;;10.30;;
49852;SDS011;35751;48.072;11.688;2023-01-19T07:50:42;19.35;;;10.30;;
49852;SDS011;35751;48.072;11.688;2023-01-19T07:53:07;18.60;;;11.40;;
49852;SDS011;35751;48.072;11.688;2023-01-19T07:55:33;20.02;;;11.77;;
49852;SDS011;35751;48.072;11.688;2023-01-19T07:57:59;18.52;;;10.95;;
49852;SDS011;35751;48.072;11.688;2023-01-19T08:00:32;16.90;;;11.80;;
49852;SDS011;35751;48.072;11.688;2023-01-19T08:02:59;13.80;;;9.20;;
49852;SDS011;35751;48.072;11.688;2023-01-19T08:05:26;20.05;;;10.75;;
49852;SDS011;35751;48.072;11.688;2023-01-19T08:07:55;19.73;;;10.73;;
49852;SDS011;35751;48.072;11.688;2023-01-19T08:10:21;18.02;;;10.30;;
49852;SDS011;35751;48.072;11.688;2023-01-19T08:12:50;18.13;;;10.60;;
49852;SDS011;35751;48.072;11.688;2023-01-19T08:15:17;18.40;;;10.57;;
49852;SDS011;35751;48.072;11.688;2023-01-19T08:17:45;16.52;;;9.23;;
49852;SDS011;35751;48.072;11.688;2023-01-19T08:20:26;15.82;;;9.68;;
49852;SDS011;35751;48.072;11.688;2023-01-19T08:22:55;18.40;;;10.90;;
49852;SDS011;35751;48.072;11.688;2023-01-19T08:28:03;19.67;;;11.25;;
49852;SDS011;35751;48.072;11.688;2023-01-19T08:30:30;17.90;;;9.20;;
49852;SDS011;35751;48.072;11.688;2023-01-19T08:32:56;20.65;;;11.18;;
49852;SDS011;35751;48.072;11.688;2023-01-19T08:35:35;15.93;;;9.50;;
49852;SDS011;35751;48.072;11.688;2023-01-19T08:38:03;17.13;;;8.73;;
49852;SDS011;35751;48.072;11.688;2023-01-19T08:40:30;13.18;;;8.73;;
49852;SDS011;35751;48.072;11.688;2023-01-19T08:43:00;19.15;;;9.65;;
49852;SDS011;35751;48.072;11.688;2023-01-19T08:45:30;16.27;;;9.13;;
49852;SDS011;35751;48.072;11.688;2023-01-19T08:47:56;15.40;;;10.32;;
49852;SDS011;35751;48.072;11.688;2023-01-19T08:50:25;19.38;;;10.95;;
49852;SDS011;35751;48.072;11.688;2023-01-19T08:52:55;15.30;;;9.48;;
49852;SDS011;35751;48.072;11.688;2023-01-19T08:55:26;14.32;;;8.57;;
49852;SDS011;35751;48.072;11.688;2023-01-19T08:57:53;14.40;;;9.77;;
49852;SDS011;35751;48.072;11.688;2023-01-19T09:00:22;17.25;;;9.52;;
49852;SDS011;35751;48.072;11.688;2023-01-19T09:02:49;16.92;;;10.18;;
49852;SDS011;35751;48.072;11.688;2023-01-19T09:05:15;16.27;;;9.10;;
49852;SDS011;35751;48.072;11.688;2023-01-19T09:07:42;13.57;;;8.27;;
49852;SDS011;35751;48.072;11.688;2023-01-19T09:10:09;14.63;;;9.00;;
49852;SDS011;35751;48.072;11.688;2023-01-19T09:12:37;12.90;;;8.57;;
49852;SDS011;35751;48.072;11.688;2023-01-19T09:15:03;14.10;;;8.35;;
49852;SDS011;35751;48.072;11.688;2023-01-19T09:17:32;13.27;;;8.65;;
49852;SDS011;35751;48.072;11.688;2023-01-19T09:19:58;12.23;;;7.35;;
49852;SDS011;35751;48.072;11.688;2023-01-19T09:22:25;13.50;;;8.18;;
49852;SDS011;35751;48.072;11.688;2023-01-19T09:24:51;11.82;;;7.80;;
49852;SDS011;35751;48.072;11.688;2023-01-19T09:27:17;12.65;;;8.15;;
49852;SDS011;35751;48.072;11.688;2023-01-19T09:29:43;11.98;;;7.75;;
49852;SDS011;35751;48.072;11.688;2023-01-19T09:32:16;13.98;;;8.00;;
49852;SDS011;35751;48.072;11.688;2023-01-19T09:34:43;15.50;;;8.27;;
49852;SDS011;35751;48.072;11.688;2023-01-19T09:37:09;14.45;;;7.80;;
49852;SDS011;35751;48.072;11.688;2023-01-19T09:39:35;12.02;;;6.88;;
49852;SDS011;35751;48.072;11.688;2023-01-19T09:42:04;15.75;;;8.10;;
49852;SDS011;35751;48.072;11.688;2023-01-19T09:44:38;11.65;;;8.02;;
49852;SDS011;35751;48.072;11.688;2023-01-19T09:47:11;14.07;;;7.85;;
49852;SDS011;35751;48.072;11.688;2023-01-19T09:49:40;12.43;;;7.05;;
49852;SDS011;35751;48.072;11.688;2023-01-19T09:52:13;13.20;;;7.38;;
49852;SDS011;35751;48.072;11.688;2023-01-19T09:57:18;13.30;;;7.80;;
49852;SDS011;35751;48.072;11.688;2023-01-19T09:59:45;10.52;;;6.43;;
49852;SDS011;35751;48.072;11.688;2023-01-19T10:07:49;10.30;;;6.72;;
49852;SDS011;35751;48.072;11.688;2023-01-19T10:10:28;10.68;;;6.95;;
49852;SDS011;35751;48.072;11.688;2023-01-19T10:16:13;9.63;;;6.13;;
49852;SDS011;35751;48.072;11.688;2023-01-19T10:18:42;11.90;;;6.65;;
49852;SDS011;35751;48.072;11.688;2023-01-19T10:21:16;10.57;;;6.82;;
49852;SDS011;35751;48.072;11.688;2023-01-19T10:23:54;10.75;;;6.15;;
49852;SDS011;35751;48.072;11.688;2023-01-19T10:26:25;10.80;;;6.40;;
49852;SDS011;35751;48.072;11.688;2023-01-19T10:29:04;11.23;;;6.40;;
49852;SDS011;35751;48.072;11.688;2023-01-19T10:31:37;10.05;;;6.10;;
49852;SDS011;35751;48.072;11.688;2023-01-19T10:34:05;12.20;;;6.57;;
49852;SDS011;35751;48.072;11.688;2023-01-19T10:36:35;9.55;;;5.88;;
49852;SDS011;35751;48.072;11.688;2023-01-19T10:39:05;8.95;;;5.57;;
49852;SDS011;35751;48.072;11.688;2023-01-19T10:41:39;8.65;;;6.45;;
49852;SDS011;35751;48.072;11.688;2023-01-19T10:44:07;8.75;;;5.88;;
49852;SDS011;35751;48.072;11.688;2023-01-19T10:46:42;9.70;;;6.20;;
49852;SDS011;35751;48.072;11.688;2023-01-19T10:49:22;8.17;;;5.77;;
49852;SDS011;35751;48.072;11.688;2023-01-19T10:51:58;12.45;;;5.70;;
49852;SDS011;35751;48.072;11.688;2023-01-19T10:54:24;9.07;;;5.40;;
49852;SDS011;35751;48.072;11.688;2023-01-19T10:56:54;11.43;;;5.88;;
49852;SDS011;35751;48.072;11.688;2023-01-19T10:59:29;10.73;;;5.93;;
49852;SDS011;35751;48.072;11.688;2023-01-19T11:04:56;9.82;;;5.68;;
49852;SDS011;35751;48.072;11.688;2023-01-19T11:13:03;7.72;;;4.30;;
49852;SDS011;35751;48.072;11.688;2023-01-19T11:18:21;9.40;;;5.93;;
49852;SDS011;35751;48.072;11.688;2023-01-19T11:20:49;8.15;;;5.32;;
49852;SDS011;35751;48.072;11.688;2023-01-19T11:23:23;14.57;;;4.68;;
49852;SDS011;35751;48.072;11.688;2023-01-19T11:25:59;9.30;;;4.90;;
49852;SDS011;35751;48.072;11.688;2023-01-19T11:28:31;9.32;;;5.10;;
49852;SDS011;35751;48.072;11.688;2023-01-19T11:31:00;9.10;;;5.53;;
49852;SDS011;35751;48.072;11.688;2023-01-19T11:33:51;8.23;;;5.45;;
49852;SDS011;35751;48.072;11.688;2023-01-19T11:36:26;11.82;;;6.15;;
49852;SDS011;35751;48.072;11.688;2023-01-19T11:38:53;9.90;;;7.20;;
49852;SDS011;35751;48.072;11.688;2023-01-19T11:41:22;9.27;;;6.18;;
49852;SDS011;35751;48.072;11.688;2023-01-19T11:43:52;9.02;;;5.70;;
49852;SDS011;35751;48.072;11.688;2023-01-19T11:46:20;10.40;;;5.88;;
49852;SDS011;35751;48.072;11.688;2023-01-19T11:48:52;6.97;;;4.80;;
49852;SDS011;35751;48.072;11.688;2023-01-19T11:51:25;11.10;;;5.45;;
49852;SDS011;35751;48.072;11.688;2023-01-19T11:53:53;11.80;;;5.50;;
49852;SDS011;35751;48.072;11.688;2023-01-19T11:56:19;8.43;;;5.20;;
49852;SDS011;35751;48.072;11.688;2023-01-19T11:58:47;13.25;;;6.97;;
49852;SDS011;35751;48.072;11.688;2023-01-19T12:01:24;8.95;;;5.60;;
49852;SDS011;35751;48.072;11.688;2023-01-19T12:03:57;10.25;;;5.93;;
49852;SDS011;35751;48.072;11.688;2023-01-19T12:06:29;11.32;;;5.88;;
49852;SDS011;35751;48.072;11.688;2023-01-19T12:09:20;12.15;;;6.47;;
49852;SDS011;35751;48.072;11.688;2023-01-19T12:12:06;9.88;;;5.78;;
49852;SDS011;35751;48.072;11.688;2023-01-19T12:14:54;12.52;;;6.35;;
49852;SDS011;35751;48.072;11.688;2023-01-19T12:17:34;7.55;;;4.95;;
49852;SDS011;35751;48.072;11.688;2023-01-19T12:20:06;8.75;;;5.40;;
49852;SDS011;35751;48.072;11.688;2023-01-19T12:22:44;11.50;;;6.60;;
49852;SDS011;35751;48.072;11.688;2023-01-19T12:27:43;8.98;;;4.93;;
49852;SDS011;35751;48.072;11.688;2023-01-19T12:30:24;10.57;;;5.40;;
49852;SDS011;35751;48.072;11.688;2023-01-19T12:33:18;9.48;;;5.38;;
49852;SDS011;35751;48.072;11.688;2023-01-19T12:36:03;10.45;;;5.57;;
49852;SDS011;35751;48.072;11.688;2023-01-19T12:41:27;10.05;;;5.35;;
49852;SDS011;35751;48.072;11.688;2023-01-19T12:54:57;8.15;;;5.50;;
49852;SDS011;35751;48.072;11.688;2023-01-19T12:57:32;9.70;;;5.47;;
49852;SDS011;35751;48.072;11.688;2023-01-19T13:00:12;4.85;;;4.05;;
49852;SDS011;35751;48.072;11.688;2023-01-19T13:02:54;11.35;;;4.72;;
49852;SDS011;35751;48.072;11.688;2023-01-19T13:13:31;2.90;;;2.00;;
49852;SDS011;35751;48.072;11.688;2023-01-19T13:18:47;4.03;;;2.05;;
49852;SDS011;35751;48.072;11.688;2023-01-19T13:21:34;5.35;;;2.63;;
49852;SDS011;35751;48.072;11.688;2023-01-19T13:24:08;4.65;;;2.28;;
49852;SDS011;35751;48.072;11.688;2023-01-19T13:29:24;6.32;;;2.08;;
49852;SDS011;35751;48.072;11.688;2023-01-19T13:31:54;5.75;;;3.20;;
49852;SDS011;35751;48.072;11.688;2023-01-19T13:34:49;4.63;;;2.40;;
49852;SDS011;35751;48.072;11.688;2023-01-19T13:37:37;4.18;;;3.00;;
49852;SDS011;35751;48.072;11.688;2023-01-19T13:40:02;4.35;;;3.13;;
49852;SDS011;35751;48.072;11.688;2023-01-19T13:42:30;4.07;;;2.67;;
49852;SDS011;35751;48.072;11.688;2023-01-19T13:45:02;7.28;;;3.35;;
49852;SDS011;35751;48.072;11.688;2023-01-19T13:47:35;5.00;;;3.40;;
49852;SDS011;35751;48.072;11.688;2023-01-19T13:50:19;5.18;;;3.38;;
49852;SDS011;35751;48.072;11.688;2023-01-19T13:52:47;5.53;;;3.45;;
49852;SDS011;35751;48.072;11.688;2023-01-19T13:55:18;4.50;;;3.10;;
49852;SDS011;35751;48.072;11.688;2023-01-19T13:57:45;3.15;;;2.72;;
49852;SDS011;35751;48.072;11.688;2023-01-19T14:00:14;5.18;;;3.00;;
49852;SDS011;35751;48.072;11.688;2023-01-19T14:08:14;4.35;;;3.13;;
49852;SDS011;35751;48.072;11.688;2023-01-19T14:13:20;5.28;;;3.50;;
49852;SDS011;35751;48.072;11.688;2023-01-19T14:15:50;5.53;;;3.25;;
49852;SDS011;35751;48.072;11.688;2023-01-19T14:21:02;9.30;;;4.80;;
49852;SDS011;35751;48.072;11.688;2023-01-19T14:26:02;6.95;;;3.95;;
49852;SDS011;35751;48.072;11.688;2023-01-19T14:28:28;6.13;;;4.20;;
49852;SDS011;35751;48.072;11.688;2023-01-19T14:33:44;6.38;;;3.70;;
49852;SDS011;35751;48.072;11.688;2023-01-19T14:36:23;6.00;;;3.30;;
49852;SDS011;35751;48.072;11.688;2023-01-19T14:38:51;7.63;;;3.92;;
49852;SDS011;35751;48.072;11.688;2023-01-19T14:41:22;9.23;;;5.07;;
49852;SDS011;35751;48.072;11.688;2023-01-19T14:43:55;8.60;;;4.82;;
49852;SDS011;35751;48.072;11.688;2023-01-19T14:46:21;8.73;;;3.58;;
49852;SDS011;35751;48.072;11.688;2023-01-19T14:48:48;6.05;;;3.90;;
49852;SDS011;35751;48.072;11.688;2023-01-19T14:51:17;6.47;;;4.22;;
49852;SDS011;35751;48.072;11.688;2023-01-19T14:53:49;6.30;;;3.95;;
49852;SDS011;35751;48.072;11.688;2023-01-19T14:56:25;6.47;;;2.90;;
49852;SDS011;35751;48.072;11.688;2023-01-19T14:58:53;8.25;;;3.22;;
49852;SDS011;35751;48.072;11.688;2023-01-19T15:01:20;6.72;;;4.05;;
49852;SDS011;35751;48.072;11.688;2023-01-19T15:03:46;8.40;;;3.45;;
49852;SDS011;35751;48.072;11.688;2023-01-19T15:06:14;5.40;;;3.28;;
49852;SDS011;35751;48.072;11.688;2023-01-19T15:08:41;4.60;;;3.17;;
49852;SDS011;35751;48.072;11.688;2023-01-19T15:11:11;7.82;;;3.13;;
49852;SDS011;35751;48.072;11.688;2023-01-19T15:13:42;7.00;;;4.22;;
49852;SDS011;35751;48.072;11.688;2023-01-19T15:16:08;7.07;;;3.60;;
49852;SDS011;35751;48.072;11.688;2023-01-19T15:18:34;42.50;;;19.88;;
49852;SDS011;35751;48.072;11.688;2023-01-19T15:21:01;13.15;;;6.75;;
49852;SDS011;35751;48.072;11.688;2023-01-19T15:23:31;11.93;;;7.40;;
49852;SDS011;35751;48.072;11.688;2023-01-19T15:26:01;3.53;;;2.92;;
49852;SDS011;35751;48.072;11.688;2023-01-19T15:28:31;7.20;;;2.97;;
49852;SDS011;35751;48.072;11.688;2023-01-19T15:30:58;5.32;;;3.10;;
49852;SDS011;35751;48.072;11.688;2023-01-19T15:33:24;5.13;;;3.80;;
49852;SDS011;35751;48.072;11.688;2023-01-19T15:35:53;5.32;;;3.53;;
49852;SDS011;35751;48.072;11.688;2023-01-19T15:38:19;9.20;;;4.20;;
49852;SDS011;35751;48.072;11.688;2023-01-19T15:40:46;8.50;;;4.90;;
49852;SDS011;35751;48.072;11.688;2023-01-19T15:43:17;5.80;;;4.05;;
49852;SDS011;35751;48.072;11.688;2023-01-19T15:45:49;6.05;;;4.03;;
49852;SDS011;35751;48.072;11.688;2023-01-19T15:48:17;5.30;;;3.55;;
49852;SDS011;35751;48.072;11.688;2023-01-19T15:50:44;4.63;;;3.30;;
49852;SDS011;35751;48.072;11.688;2023-01-19T15:53:12;6.10;;;3.22;;